createdAt,value
2018-07-05T00:00:52.785Z,22.70
2018-07-05T00:01:24.552Z,22.70
2018-07-05T00:01:56.254Z,22.70
2018-07-05T00:02:27.986Z,22.70
2018-07-05T00:02:59.784Z,22.70
2018-07-05T00:03:31.544Z,22.70
2018-07-05T00:04:03.297Z,22.70
2018-07-05T00:04:35.018Z,22.70
2018-07-05T00:05:06.811Z,22.70
2018-07-05T00:05:38.730Z,22.70
2018-07-05T00:06:10.498Z,22.70
2018-07-05T00:06:42.205Z,22.70
2018-07-05T00:07:13.929Z,22.80
2018-07-05T00:07:45.655Z,22.80
2018-07-05T00:08:17.385Z,22.70
2018-07-05T00:08:49.116Z,22.70
2018-07-05T00:09:20.847Z,22.70
2018-07-05T00:09:52.581Z,22.70
2018-07-05T00:10:24.374Z,22.70
2018-07-05T00:10:56.119Z,22.70
2018-07-05T00:11:27.856Z,22.70
2018-07-05T00:11:59.583Z,22.70
2018-07-05T00:12:31.317Z,22.80
2018-07-05T00:13:03.042Z,22.70
2018-07-05T00:13:34.787Z,22.70
2018-07-05T00:14:06.645Z,22.70
2018-07-05T00:14:38.367Z,22.70
2018-07-05T00:15:10.123Z,22.70
2018-07-05T00:15:41.858Z,22.70
2018-07-05T00:16:13.595Z,22.70
2018-07-05T00:16:45.509Z,22.70
2018-07-05T00:17:17.253Z,22.70
2018-07-05T00:17:48.974Z,22.70
2018-07-05T00:18:20.695Z,22.70
2018-07-05T00:18:52.426Z,22.70
2018-07-05T00:19:24.153Z,22.60
2018-07-05T00:19:55.888Z,22.70
2018-07-05T00:20:27.639Z,22.60
2018-07-05T00:20:59.375Z,22.70
2018-07-05T00:21:31.109Z,22.70
2018-07-05T00:22:02.849Z,22.60
2018-07-05T00:22:34.596Z,22.60
2018-07-05T00:23:06.602Z,22.60
2018-07-05T00:24:10.372Z,22.60
2018-07-05T00:24:42.082Z,22.60
2018-07-05T00:25:13.815Z,22.60
2018-07-05T00:25:45.542Z,22.60
2018-07-05T00:26:17.274Z,22.60
2018-07-05T00:26:49.001Z,22.60
2018-07-05T00:27:20.730Z,22.60
2018-07-05T00:27:52.497Z,22.60
2018-07-05T00:28:24.250Z,22.60
2018-07-05T00:28:55.986Z,22.60
2018-07-05T00:29:27.723Z,22.60
2018-07-05T00:29:59.454Z,22.50
2018-07-05T00:30:31.202Z,22.50
2018-07-05T00:31:02.928Z,22.50
2018-07-05T00:31:34.660Z,22.50
2018-07-05T00:32:06.391Z,22.50
2018-07-05T00:32:38.113Z,22.50
2018-07-05T00:33:09.850Z,22.50
2018-07-05T00:33:41.573Z,22.60
2018-07-05T00:34:13.312Z,22.60
2018-07-05T00:34:45.035Z,22.50
2018-07-05T00:35:16.757Z,22.60
2018-07-05T00:35:48.493Z,22.60
2018-07-05T00:36:20.231Z,22.50
2018-07-05T00:36:51.955Z,22.50
2018-07-05T00:37:23.730Z,22.60
2018-07-05T00:37:55.443Z,22.50
2018-07-05T00:38:27.169Z,22.50
2018-07-05T00:38:58.914Z,22.50
2018-07-05T00:39:30.635Z,22.50
2018-07-05T00:40:02.351Z,22.50
2018-07-05T00:40:34.121Z,22.50
2018-07-05T00:41:05.857Z,22.50
2018-07-05T00:41:37.630Z,22.50
2018-07-05T00:42:09.425Z,22.60
2018-07-05T00:42:41.117Z,22.60
2018-07-05T00:43:12.839Z,22.60
2018-07-05T00:43:44.635Z,22.60
2018-07-05T00:44:16.359Z,22.70
2018-07-05T00:44:48.094Z,22.70
2018-07-05T00:45:20.103Z,22.70
2018-07-05T00:45:51.826Z,22.70
2018-07-05T00:46:23.555Z,22.70
2018-07-05T00:46:55.327Z,22.70
2018-07-05T00:47:27.338Z,22.70
2018-07-05T00:47:59.072Z,22.70
2018-07-05T00:48:30.791Z,22.70
2018-07-05T00:49:02.553Z,22.70
2018-07-05T00:49:34.467Z,22.70
2018-07-05T00:50:06.204Z,22.70
2018-07-05T00:50:37.942Z,22.70
2018-07-05T00:51:09.699Z,22.70
2018-07-05T00:51:41.422Z,22.70
2018-07-05T00:52:13.165Z,22.70
2018-07-05T00:52:44.910Z,22.60
2018-07-05T00:53:16.642Z,22.60
2018-07-05T00:53:48.377Z,22.60
2018-07-05T00:54:20.095Z,22.60
2018-07-05T00:54:51.818Z,22.60
2018-07-05T00:55:23.547Z,22.60
2018-07-05T00:55:55.270Z,22.50
2018-07-05T00:56:27.029Z,22.50
2018-07-05T00:56:58.760Z,22.50
2018-07-05T00:57:30.478Z,22.50
2018-07-05T00:58:02.217Z,22.60
2018-07-05T00:58:33.934Z,22.60
2018-07-05T00:59:05.654Z,22.60
2018-07-05T00:59:37.387Z,22.60
2018-07-05T01:00:09.110Z,22.60
2018-07-05T01:00:40.837Z,22.50
2018-07-05T01:01:12.575Z,22.50
2018-07-05T01:01:44.497Z,22.50
2018-07-05T01:02:16.226Z,22.50
2018-07-05T01:02:47.969Z,22.50
2018-07-05T01:03:19.692Z,22.50
2018-07-05T01:03:51.399Z,22.50
2018-07-05T01:04:23.123Z,22.50
2018-07-05T01:04:54.848Z,22.50
2018-07-05T01:05:26.689Z,22.50
2018-07-05T01:05:58.380Z,22.50
2018-07-05T01:06:30.101Z,22.50
2018-07-05T01:07:01.822Z,22.40
2018-07-05T01:07:33.564Z,22.40
2018-07-05T01:08:05.299Z,22.50
2018-07-05T01:08:37.014Z,22.40
2018-07-05T01:09:08.747Z,22.50
2018-07-05T01:09:40.467Z,22.40
2018-07-05T01:10:12.187Z,22.40
2018-07-05T01:10:43.909Z,22.40
2018-07-05T01:11:15.645Z,22.40
2018-07-05T01:11:47.384Z,22.40
2018-07-05T01:12:19.123Z,22.40
2018-07-05T01:13:22.874Z,22.40
2018-07-05T01:13:54.615Z,22.50
2018-07-05T01:14:26.334Z,22.50
2018-07-05T01:14:58.059Z,22.50
2018-07-05T01:15:29.814Z,22.50
2018-07-05T01:16:01.534Z,22.50
2018-07-05T01:16:33.291Z,22.50
2018-07-05T01:17:05.022Z,22.60
2018-07-05T01:17:36.742Z,22.60
2018-07-05T01:18:08.473Z,22.60
2018-07-05T01:18:40.194Z,22.60
2018-07-05T01:19:11.920Z,22.60
2018-07-05T01:19:43.653Z,22.60
2018-07-05T01:20:15.390Z,22.60
2018-07-05T01:20:47.123Z,22.60
2018-07-05T01:21:18.840Z,22.60
2018-07-05T01:21:50.578Z,22.70
2018-07-05T01:22:22.311Z,22.70
2018-07-05T01:22:54.154Z,22.70
2018-07-05T01:23:25.931Z,22.60
2018-07-05T01:23:57.649Z,22.70
2018-07-05T01:24:29.411Z,22.70
2018-07-05T01:25:01.192Z,22.70
2018-07-05T01:25:32.967Z,22.70
2018-07-05T01:26:04.710Z,22.70
2018-07-05T01:26:36.465Z,22.70
2018-07-05T01:27:08.177Z,22.70
2018-07-05T01:27:39.890Z,22.80
2018-07-05T01:28:11.645Z,22.70
2018-07-05T01:28:43.364Z,22.70
2018-07-05T01:29:15.094Z,22.70
2018-07-05T01:29:46.821Z,22.70
2018-07-05T01:30:18.546Z,22.70
2018-07-05T01:30:50.285Z,22.80
2018-07-05T01:31:22.008Z,22.70
2018-07-05T01:31:53.731Z,22.70
2018-07-05T01:32:25.461Z,22.70
2018-07-05T01:32:57.177Z,22.70
2018-07-05T01:33:28.909Z,22.70
2018-07-05T01:34:00.635Z,22.70
2018-07-05T01:34:32.356Z,22.70
2018-07-05T01:35:04.096Z,22.70
2018-07-05T01:35:35.814Z,22.70
2018-07-05T01:36:07.562Z,22.70
2018-07-05T01:36:39.345Z,22.70
2018-07-05T01:37:11.070Z,22.70
2018-07-05T01:37:42.817Z,22.70
2018-07-05T01:38:14.542Z,22.70
2018-07-05T01:38:46.262Z,22.70
2018-07-05T01:39:17.995Z,22.70
2018-07-05T01:39:49.715Z,22.70
2018-07-05T01:40:21.449Z,22.60
2018-07-05T01:40:53.163Z,22.60
2018-07-05T01:41:24.930Z,22.60
2018-07-05T01:41:56.714Z,22.70
2018-07-05T01:42:28.459Z,22.70
2018-07-05T01:43:00.174Z,22.70
2018-07-05T01:43:31.915Z,22.70
2018-07-05T01:44:03.642Z,22.70
2018-07-05T01:44:35.370Z,22.70
2018-07-05T01:45:07.107Z,22.70
2018-07-05T01:45:38.838Z,22.70
2018-07-05T01:46:10.657Z,22.70
2018-07-05T01:46:42.382Z,22.70
2018-07-05T01:47:14.134Z,22.60
2018-07-05T01:47:45.853Z,22.60
2018-07-05T01:48:17.579Z,22.60
2018-07-05T01:48:49.305Z,22.60
2018-07-05T01:49:21.031Z,22.50
2018-07-05T01:49:52.774Z,22.50
2018-07-05T01:50:24.486Z,22.50
2018-07-05T01:50:56.212Z,22.40
2018-07-05T01:51:27.964Z,22.40
2018-07-05T01:51:59.683Z,22.40
2018-07-05T01:52:31.422Z,22.40
2018-07-05T01:53:03.146Z,22.50
2018-07-05T01:53:34.873Z,22.50
2018-07-05T01:54:06.606Z,22.40
2018-07-05T01:54:38.346Z,22.40
2018-07-05T01:55:10.077Z,22.50
2018-07-05T01:55:41.850Z,22.50
2018-07-05T01:56:13.586Z,22.50
2018-07-05T01:56:45.325Z,22.50
2018-07-05T01:57:17.043Z,22.50
2018-07-05T01:57:48.775Z,22.50
2018-07-05T01:58:20.506Z,22.50
2018-07-05T01:58:52.227Z,22.40
2018-07-05T01:59:23.965Z,22.40
2018-07-05T01:59:55.883Z,22.40
2018-07-05T02:00:27.817Z,22.40
2018-07-05T02:00:59.543Z,22.40
2018-07-05T02:01:31.267Z,22.40
2018-07-05T02:02:03.057Z,22.40
2018-07-05T02:02:34.798Z,22.40
2018-07-05T02:03:06.541Z,22.40
2018-07-05T02:03:38.256Z,22.40
2018-07-05T02:04:09.978Z,22.40
2018-07-05T02:04:41.713Z,22.40
2018-07-05T02:05:13.448Z,22.40
2018-07-05T02:05:45.169Z,22.40
2018-07-05T02:06:16.905Z,22.40
2018-07-05T02:06:48.632Z,22.40
2018-07-05T02:07:20.361Z,22.40
2018-07-05T02:07:52.085Z,22.40
2018-07-05T02:08:23.814Z,22.40
2018-07-05T02:08:55.541Z,22.40
2018-07-05T02:09:27.297Z,22.40
2018-07-05T02:09:59.040Z,22.40
2018-07-05T02:10:30.787Z,22.40
2018-07-05T02:11:02.518Z,22.40
2018-07-05T02:11:34.249Z,22.40
2018-07-05T02:12:05.977Z,22.50
2018-07-05T02:12:37.708Z,22.50
2018-07-05T02:13:09.457Z,22.50
2018-07-05T02:13:41.189Z,22.50
2018-07-05T02:14:12.925Z,22.50
2018-07-05T02:14:44.648Z,22.50
2018-07-05T02:15:16.390Z,22.60
2018-07-05T02:16:20.198Z,22.60
2018-07-05T02:16:52.106Z,22.60
2018-07-05T02:17:23.831Z,22.60
2018-07-05T02:17:55.567Z,22.60
2018-07-05T02:18:27.303Z,22.60
2018-07-05T02:18:59.019Z,22.60
2018-07-05T02:20:02.878Z,22.60
2018-07-05T02:20:34.608Z,22.60
2018-07-05T02:21:06.362Z,22.60
2018-07-05T02:21:38.097Z,22.60
2018-07-05T02:22:09.814Z,22.60
2018-07-05T02:22:41.549Z,22.60
2018-07-05T02:23:13.277Z,22.60
2018-07-05T02:23:45.041Z,22.60
2018-07-05T02:24:16.749Z,22.60
2018-07-05T02:24:48.482Z,22.60
2018-07-05T02:25:20.227Z,22.60
2018-07-05T02:25:51.984Z,22.60
2018-07-05T02:26:23.750Z,22.60
2018-07-05T02:26:55.461Z,22.60
2018-07-05T02:27:27.209Z,22.60
2018-07-05T02:27:58.934Z,22.50
2018-07-05T02:28:30.668Z,22.50
2018-07-05T02:29:02.434Z,22.50
2018-07-05T02:29:34.195Z,22.60
2018-07-05T02:30:05.926Z,22.50
2018-07-05T02:30:37.636Z,22.50
2018-07-05T02:31:09.391Z,22.50
2018-07-05T02:31:41.310Z,22.50
2018-07-05T02:32:13.028Z,22.50
2018-07-05T02:32:44.791Z,22.50
2018-07-05T02:33:16.518Z,22.50
2018-07-05T02:33:48.241Z,22.50
2018-07-05T02:34:19.972Z,22.50
2018-07-05T02:34:51.706Z,22.50
2018-07-05T02:35:23.521Z,22.50
2018-07-05T02:35:55.235Z,22.60
2018-07-05T02:36:26.954Z,22.60
2018-07-05T02:36:58.718Z,22.60
2018-07-05T02:37:30.438Z,22.60
2018-07-05T02:38:02.169Z,22.60
2018-07-05T02:38:33.904Z,22.60
2018-07-05T02:39:05.629Z,22.60
2018-07-05T02:39:37.349Z,22.60
2018-07-05T02:40:09.077Z,22.60
2018-07-05T02:40:40.814Z,22.60
2018-07-05T02:41:12.536Z,22.60
2018-07-05T02:41:44.265Z,22.60
2018-07-05T02:42:16.202Z,22.60
2018-07-05T02:42:47.917Z,22.60
2018-07-05T02:43:19.657Z,22.60
2018-07-05T02:43:51.383Z,22.60
2018-07-05T02:44:23.133Z,22.60
2018-07-05T02:44:54.846Z,22.60
2018-07-05T02:45:26.814Z,22.60
2018-07-05T02:45:58.544Z,22.60
2018-07-05T02:46:30.279Z,22.60
2018-07-05T02:47:01.992Z,22.60
2018-07-05T02:47:33.788Z,22.60
2018-07-05T02:48:05.484Z,22.60
2018-07-05T02:48:37.220Z,22.60
2018-07-05T02:49:08.947Z,22.60
2018-07-05T02:49:40.690Z,22.60
2018-07-05T02:50:12.447Z,22.60
2018-07-05T02:50:44.181Z,22.60
2018-07-05T02:51:15.931Z,22.60
2018-07-05T02:51:47.663Z,22.60
2018-07-05T02:52:19.417Z,22.60
2018-07-05T02:52:51.131Z,22.60
2018-07-05T02:53:22.872Z,22.60
2018-07-05T02:53:54.813Z,22.60
2018-07-05T02:54:26.545Z,22.50
2018-07-05T02:54:58.269Z,22.50
2018-07-05T02:55:30.005Z,22.50
2018-07-05T02:56:02.001Z,22.50
2018-07-05T02:56:33.937Z,22.50
2018-07-05T02:57:05.654Z,22.60
2018-07-05T02:57:37.680Z,22.60
2018-07-05T02:58:09.437Z,22.60
2018-07-05T02:58:41.163Z,22.60
2018-07-05T02:59:12.886Z,22.60
2018-07-05T02:59:44.623Z,22.60
2018-07-05T03:00:16.349Z,22.50
2018-07-05T03:00:48.097Z,22.50
2018-07-05T03:01:19.814Z,22.50
2018-07-05T03:01:51.596Z,22.50
2018-07-05T03:02:23.475Z,22.60
2018-07-05T03:02:55.227Z,22.60
2018-07-05T03:03:26.958Z,22.60
2018-07-05T03:03:58.689Z,22.60
2018-07-05T03:04:30.406Z,22.50
2018-07-05T03:05:02.125Z,22.60
2018-07-05T03:05:33.842Z,22.60
2018-07-05T03:06:05.580Z,22.60
2018-07-05T03:06:37.311Z,22.60
2018-07-05T03:07:09.066Z,22.60
2018-07-05T03:07:40.787Z,22.60
2018-07-05T03:08:12.531Z,22.50
2018-07-05T03:08:44.268Z,22.60
2018-07-05T03:09:16.005Z,22.50
2018-07-05T03:09:47.767Z,22.50
2018-07-05T03:10:19.713Z,22.50
2018-07-05T03:10:51.440Z,22.50
2018-07-05T03:11:23.166Z,22.40
2018-07-05T03:11:55.319Z,22.40
2018-07-05T03:12:27.030Z,22.40
2018-07-05T03:12:58.747Z,22.40
2018-07-05T03:13:30.471Z,22.30
2018-07-05T03:14:02.474Z,22.30
2018-07-05T03:14:34.228Z,22.30
2018-07-05T03:15:05.922Z,22.30
2018-07-05T03:15:37.650Z,22.30
2018-07-05T03:16:09.372Z,22.30
2018-07-05T03:16:41.098Z,22.30
2018-07-05T03:17:12.842Z,22.30
2018-07-05T03:17:44.575Z,22.30
2018-07-05T03:18:16.294Z,22.30
2018-07-05T03:18:48.018Z,22.30
2018-07-05T03:19:19.762Z,22.30
2018-07-05T03:19:51.490Z,22.30
2018-07-05T03:20:23.233Z,22.30
2018-07-05T03:20:54.975Z,22.40
2018-07-05T03:21:26.692Z,22.30
2018-07-05T03:21:58.451Z,22.40
2018-07-05T03:22:30.174Z,22.30
2018-07-05T03:23:01.927Z,22.30
2018-07-05T03:23:33.637Z,22.40
2018-07-05T03:24:05.386Z,22.40
2018-07-05T03:24:37.095Z,22.40
2018-07-05T03:25:08.901Z,22.40
2018-07-05T03:25:40.637Z,22.40
2018-07-05T03:26:12.353Z,22.40
2018-07-05T03:26:44.090Z,22.40
2018-07-05T03:27:15.844Z,22.40
2018-07-05T03:27:47.549Z,22.40
2018-07-05T03:28:19.282Z,22.40
2018-07-05T03:28:51.065Z,22.40
2018-07-05T03:29:22.785Z,22.40
2018-07-05T03:29:54.514Z,22.40
2018-07-05T03:30:26.257Z,22.30
2018-07-05T03:30:58.000Z,22.30
2018-07-05T03:31:29.719Z,22.40
2018-07-05T03:32:01.526Z,22.40
2018-07-05T03:32:33.211Z,22.40
2018-07-05T03:33:04.936Z,22.30
2018-07-05T03:33:36.675Z,22.30
2018-07-05T03:34:08.501Z,22.30
2018-07-05T03:34:40.207Z,22.20
2018-07-05T03:35:11.926Z,22.30
2018-07-05T03:35:43.661Z,22.20
2018-07-05T03:36:15.478Z,22.20
2018-07-05T03:36:47.174Z,22.20
2018-07-05T03:37:18.917Z,22.20
2018-07-05T03:37:50.636Z,22.20
2018-07-05T03:38:22.358Z,22.30
2018-07-05T03:38:54.139Z,22.30
2018-07-05T03:39:25.975Z,22.30
2018-07-05T03:39:57.722Z,22.30
2018-07-05T03:40:29.447Z,22.30
2018-07-05T03:41:01.171Z,22.30
2018-07-05T03:41:32.903Z,22.40
2018-07-05T03:42:04.618Z,22.40
2018-07-05T03:42:36.347Z,22.40
2018-07-05T03:43:08.089Z,22.40
2018-07-05T03:43:39.824Z,22.40
2018-07-05T03:44:11.597Z,22.40
2018-07-05T03:44:43.311Z,22.40
2018-07-05T03:45:15.042Z,22.40
2018-07-05T03:45:46.776Z,22.40
2018-07-05T03:46:18.520Z,22.40
2018-07-05T03:46:50.247Z,22.40
2018-07-05T03:47:22.065Z,22.40
2018-07-05T03:47:53.784Z,22.40
2018-07-05T03:48:25.504Z,22.40
2018-07-05T03:48:57.273Z,22.40
2018-07-05T03:49:29.179Z,22.50
2018-07-05T03:50:00.891Z,22.50
2018-07-05T03:50:32.629Z,22.50
2018-07-05T03:51:04.346Z,22.50
2018-07-05T03:51:36.108Z,22.50
2018-07-05T03:52:08.002Z,22.50
2018-07-05T03:52:39.781Z,22.50
2018-07-05T03:53:11.510Z,22.50
2018-07-05T03:53:43.250Z,22.50
2018-07-05T03:54:14.989Z,22.50
2018-07-05T03:54:46.718Z,22.50
2018-07-05T03:55:18.438Z,22.50
2018-07-05T03:55:50.165Z,22.50
2018-07-05T03:56:21.906Z,22.50
2018-07-05T03:56:53.639Z,22.60
2018-07-05T03:57:25.383Z,22.60
2018-07-05T03:57:57.114Z,22.60
2018-07-05T03:58:28.858Z,22.60
2018-07-05T03:59:00.627Z,22.50
2018-07-05T03:59:32.344Z,22.50
2018-07-05T04:00:04.073Z,22.50
2018-07-05T04:00:35.800Z,22.50
2018-07-05T04:01:07.532Z,22.50
2018-07-05T04:01:39.266Z,22.50
2018-07-05T04:02:11.006Z,22.50
2018-07-05T04:02:42.795Z,22.40
2018-07-05T04:03:14.648Z,22.40
2018-07-05T04:03:46.378Z,22.40
2018-07-05T04:04:18.113Z,22.40
2018-07-05T04:04:49.839Z,22.40
2018-07-05T04:05:21.567Z,22.40
2018-07-05T04:05:53.297Z,22.40
2018-07-05T04:06:25.038Z,22.40
2018-07-05T04:06:56.817Z,22.40
2018-07-05T04:07:28.577Z,22.40
2018-07-05T04:08:00.316Z,22.40
2018-07-05T04:08:32.041Z,22.40
2018-07-05T04:09:03.800Z,22.50
2018-07-05T04:09:35.752Z,22.50
2018-07-05T04:10:07.529Z,22.50
2018-07-05T04:10:39.288Z,22.50
2018-07-05T04:11:11.009Z,22.50
2018-07-05T04:11:42.749Z,22.50
2018-07-05T04:12:14.505Z,22.50
2018-07-05T04:12:46.253Z,22.50
2018-07-05T04:13:17.991Z,22.60
2018-07-05T04:13:49.722Z,22.50
2018-07-05T04:14:21.453Z,22.60
2018-07-05T04:14:53.185Z,22.60
2018-07-05T04:15:25.017Z,22.60
2018-07-05T04:16:28.796Z,22.60
2018-07-05T04:17:00.539Z,22.70
2018-07-05T04:17:32.281Z,22.70
2018-07-05T04:18:04.039Z,22.70
2018-07-05T04:18:35.767Z,22.70
2018-07-05T04:19:07.533Z,22.70
2018-07-05T04:19:39.278Z,22.70
2018-07-05T04:20:11.024Z,22.70
2018-07-05T04:20:42.766Z,22.70
2018-07-05T04:21:14.489Z,22.80
2018-07-05T04:21:46.230Z,22.80
2018-07-05T04:22:17.951Z,22.80
2018-07-05T04:22:49.696Z,22.80
2018-07-05T04:23:21.417Z,22.80
2018-07-05T04:23:53.143Z,22.80
2018-07-05T04:24:24.875Z,22.70
2018-07-05T04:24:56.608Z,22.80
2018-07-05T04:25:28.515Z,22.80
2018-07-05T04:26:00.258Z,22.70
2018-07-05T04:26:31.994Z,22.80
2018-07-05T04:27:03.717Z,22.80
2018-07-05T04:27:35.502Z,22.70
2018-07-05T04:28:07.188Z,22.70
2018-07-05T04:28:38.938Z,22.70
2018-07-05T04:29:10.908Z,22.70
2018-07-05T04:29:42.635Z,22.70
2018-07-05T04:30:14.404Z,22.70
2018-07-05T04:30:46.122Z,22.70
2018-07-05T04:31:17.849Z,22.70
2018-07-05T04:31:49.571Z,22.70
2018-07-05T04:32:21.299Z,22.70
2018-07-05T04:32:53.121Z,22.70
2018-07-05T04:33:25.172Z,22.70
2018-07-05T04:33:56.921Z,22.70
2018-07-05T04:34:28.662Z,22.70
2018-07-05T04:35:00.383Z,22.70
2018-07-05T04:35:32.111Z,22.70
2018-07-05T04:36:03.828Z,22.70
2018-07-05T04:36:35.566Z,22.70
2018-07-05T04:37:07.312Z,22.60
2018-07-05T04:37:39.036Z,22.60
2018-07-05T04:38:42.769Z,22.60
2018-07-05T04:39:14.590Z,22.60
2018-07-05T04:39:46.312Z,22.60
2018-07-05T04:40:18.070Z,22.60
2018-07-05T04:40:49.839Z,22.60
2018-07-05T04:41:21.575Z,22.60
2018-07-05T04:41:53.387Z,22.60
2018-07-05T04:42:25.118Z,22.60
2018-07-05T04:42:56.845Z,22.60
2018-07-05T04:43:28.570Z,22.60
2018-07-05T04:44:00.295Z,22.60
2018-07-05T04:44:32.020Z,22.50
2018-07-05T04:45:03.759Z,22.50
2018-07-05T04:45:35.505Z,22.50
2018-07-05T04:46:07.218Z,22.50
2018-07-05T04:46:38.946Z,22.50
2018-07-05T04:47:10.662Z,22.50
2018-07-05T04:47:42.401Z,22.50
2018-07-05T04:48:14.137Z,22.50
2018-07-05T04:48:45.861Z,22.50
2018-07-05T04:49:49.634Z,22.50
2018-07-05T04:50:21.362Z,22.50
2018-07-05T04:50:53.082Z,22.50
2018-07-05T04:51:24.817Z,22.50
2018-07-05T04:51:56.541Z,22.50
2018-07-05T04:52:28.456Z,22.50
2018-07-05T04:53:00.178Z,22.50
2018-07-05T04:53:31.906Z,22.50
2018-07-05T04:54:03.674Z,22.50
2018-07-05T04:54:35.446Z,22.50
2018-07-05T04:55:07.182Z,22.50
2018-07-05T04:55:38.893Z,22.50
2018-07-05T04:56:10.618Z,22.50
2018-07-05T04:56:42.341Z,22.50
2018-07-05T04:57:14.104Z,22.40
2018-07-05T04:57:45.822Z,22.40
2018-07-05T04:58:17.547Z,22.50
2018-07-05T04:58:49.271Z,22.50
2018-07-05T04:59:21.062Z,22.50
2018-07-05T04:59:52.798Z,22.50
2018-07-05T05:00:56.489Z,22.50
2018-07-05T05:01:28.229Z,22.50
2018-07-05T05:01:59.970Z,22.50
2018-07-05T05:02:31.710Z,22.50
2018-07-05T05:03:03.652Z,22.50
2018-07-05T05:03:35.382Z,22.50
2018-07-05T05:04:07.110Z,22.50
2018-07-05T05:04:38.890Z,22.50
2018-07-05T05:05:10.603Z,22.50
2018-07-05T05:05:42.318Z,22.60
2018-07-05T05:06:14.060Z,22.50
2018-07-05T05:06:45.777Z,22.60
2018-07-05T05:07:17.497Z,22.50
2018-07-05T05:07:49.224Z,22.60
2018-07-05T05:08:20.950Z,22.60
2018-07-05T05:08:52.688Z,22.60
2018-07-05T05:09:24.417Z,22.60
2018-07-05T05:09:56.145Z,22.60
2018-07-05T05:10:27.890Z,22.60
2018-07-05T05:10:59.625Z,22.60
2018-07-05T05:11:31.382Z,22.60
2018-07-05T05:12:03.135Z,22.60
2018-07-05T05:12:34.881Z,22.60
2018-07-05T05:13:06.596Z,22.60
2018-07-05T05:13:38.335Z,22.60
2018-07-05T05:14:10.094Z,22.60
2018-07-05T05:14:41.829Z,22.60
2018-07-05T05:15:13.549Z,22.60
2018-07-05T05:15:45.272Z,22.60
2018-07-05T05:16:16.985Z,22.60
2018-07-05T05:16:48.717Z,22.60
2018-07-05T05:17:20.434Z,22.60
2018-07-05T05:17:52.164Z,22.60
2018-07-05T05:18:23.889Z,22.60
2018-07-05T05:18:55.662Z,22.60
2018-07-05T05:19:27.583Z,22.60
2018-07-05T05:19:59.306Z,22.60
2018-07-05T05:20:31.034Z,22.60
2018-07-05T05:21:02.749Z,22.60
2018-07-05T05:21:34.484Z,22.60
2018-07-05T05:22:06.208Z,22.60
2018-07-05T05:22:38.255Z,22.60
2018-07-05T05:23:09.953Z,22.60
2018-07-05T05:23:41.685Z,22.60
2018-07-05T05:24:13.461Z,22.60
2018-07-05T05:24:45.347Z,22.60
2018-07-05T05:25:17.073Z,22.60
2018-07-05T05:25:48.802Z,22.60
2018-07-05T05:26:20.511Z,22.60
2018-07-05T05:26:52.232Z,22.60
2018-07-05T05:27:23.954Z,22.60
2018-07-05T05:27:55.691Z,22.60
2018-07-05T05:28:27.443Z,22.60
2018-07-05T05:28:59.194Z,22.60
2018-07-05T05:29:30.983Z,22.60
2018-07-05T05:30:02.785Z,22.60
2018-07-05T05:30:34.637Z,22.60
2018-07-05T05:31:06.383Z,22.60
2018-07-05T05:31:38.136Z,22.60
2018-07-05T05:32:10.141Z,22.60
2018-07-05T05:32:41.875Z,22.60
2018-07-05T05:33:13.618Z,22.60
2018-07-05T05:33:45.348Z,22.60
2018-07-05T05:34:17.074Z,22.60
2018-07-05T05:34:48.814Z,22.60
2018-07-05T05:35:20.537Z,22.60
2018-07-05T05:35:52.256Z,22.60
2018-07-05T05:36:23.992Z,22.60
2018-07-05T05:36:55.728Z,22.60
2018-07-05T05:37:27.452Z,22.60
2018-07-05T05:37:59.205Z,22.60
2018-07-05T05:38:30.913Z,22.60
2018-07-05T05:39:02.674Z,22.60
2018-07-05T05:39:34.835Z,22.60
2018-07-05T05:40:06.558Z,22.60
2018-07-05T05:40:38.282Z,22.60
2018-07-05T05:41:10.011Z,22.60
2018-07-05T05:41:41.939Z,22.60
2018-07-05T05:42:13.673Z,22.60
2018-07-05T05:42:45.385Z,22.60
2018-07-05T05:43:17.111Z,22.60
2018-07-05T05:43:48.843Z,22.70
2018-07-05T05:44:20.566Z,22.60
2018-07-05T05:44:52.300Z,22.60
2018-07-05T05:45:24.039Z,22.60
2018-07-05T05:45:55.774Z,22.60
2018-07-05T05:46:27.511Z,22.60
2018-07-05T05:46:59.242Z,22.70
2018-07-05T05:47:30.963Z,22.70
2018-07-05T05:48:02.684Z,22.60
2018-07-05T05:48:34.610Z,22.60
2018-07-05T05:49:06.348Z,22.60
2018-07-05T05:49:38.088Z,22.70
2018-07-05T05:50:09.803Z,22.60
2018-07-05T05:50:41.533Z,22.60
2018-07-05T05:51:13.256Z,22.60
2018-07-05T05:51:44.986Z,22.60
2018-07-05T05:52:16.732Z,22.70
2018-07-05T05:52:48.453Z,22.70
2018-07-05T05:53:20.193Z,22.70
2018-07-05T05:53:51.921Z,22.70
2018-07-05T05:54:23.654Z,22.70
2018-07-05T05:54:55.385Z,22.70
2018-07-05T05:55:27.130Z,22.70
2018-07-05T05:55:58.868Z,22.70
2018-07-05T05:56:30.573Z,22.70
2018-07-05T05:57:02.322Z,22.70
2018-07-05T05:57:34.056Z,22.70
2018-07-05T05:58:05.979Z,22.70
2018-07-05T05:58:37.718Z,22.80
2018-07-05T05:59:09.433Z,22.80
2018-07-05T05:59:41.202Z,22.80
2018-07-05T06:00:12.934Z,22.80
2018-07-05T06:00:44.660Z,22.80
2018-07-05T06:01:16.394Z,22.80
2018-07-05T06:01:48.205Z,22.80
2018-07-05T06:02:20.082Z,22.80
2018-07-05T06:02:51.814Z,22.80
2018-07-05T06:03:23.563Z,22.80
2018-07-05T06:03:55.295Z,22.80
2018-07-05T06:04:27.018Z,22.80
2018-07-05T06:04:58.749Z,22.80
2018-07-05T06:05:30.472Z,22.80
2018-07-05T06:06:02.198Z,22.80
2018-07-05T06:06:33.959Z,22.80
2018-07-05T06:07:05.678Z,22.80
2018-07-05T06:07:37.410Z,22.80
2018-07-05T06:08:09.222Z,22.80
2018-07-05T06:08:41.114Z,22.80
2018-07-05T06:09:12.840Z,22.80
2018-07-05T06:09:44.572Z,22.80
2018-07-05T06:10:16.292Z,22.80
2018-07-05T06:10:48.028Z,22.80
2018-07-05T06:11:19.753Z,22.80
2018-07-05T06:11:51.476Z,22.80
2018-07-05T06:12:23.214Z,22.80
2018-07-05T06:12:54.926Z,22.80
2018-07-05T06:13:26.671Z,22.80
2018-07-05T06:13:58.392Z,22.80
2018-07-05T06:14:30.116Z,22.80
2018-07-05T06:15:01.868Z,22.80
2018-07-05T06:15:33.603Z,22.80
2018-07-05T06:16:05.327Z,22.80
2018-07-05T06:16:37.109Z,22.80
2018-07-05T06:17:09.116Z,22.80
2018-07-05T06:17:41.013Z,22.80
2018-07-05T06:18:12.730Z,22.80
2018-07-05T06:18:44.538Z,22.70
2018-07-05T06:19:16.399Z,22.80
2018-07-05T06:19:48.148Z,22.80
2018-07-05T06:20:19.897Z,22.80
2018-07-05T06:20:51.636Z,22.80
2018-07-05T06:21:23.370Z,22.80
2018-07-05T06:21:55.486Z,22.80
2018-07-05T06:22:27.178Z,22.80
2018-07-05T06:22:58.919Z,22.80
2018-07-05T06:23:30.681Z,22.80
2018-07-05T06:24:02.405Z,22.80
2018-07-05T06:24:34.151Z,22.80
2018-07-05T06:25:05.910Z,22.80
2018-07-05T06:25:37.678Z,22.80
2018-07-05T06:26:09.578Z,22.80
2018-07-05T06:26:41.307Z,22.80
2018-07-05T06:27:13.041Z,22.80
2018-07-05T06:27:44.782Z,22.70
2018-07-05T06:28:16.509Z,22.80
2018-07-05T06:28:48.233Z,22.80
2018-07-05T06:29:19.963Z,22.80
2018-07-05T06:29:51.695Z,22.80
2018-07-05T06:30:23.431Z,22.80
2018-07-05T06:30:55.150Z,22.80
2018-07-05T06:31:26.935Z,22.80
2018-07-05T06:31:58.665Z,22.80
2018-07-05T06:32:30.395Z,22.80
2018-07-05T06:33:02.146Z,22.80
2018-07-05T06:33:33.868Z,22.80
2018-07-05T06:34:05.630Z,22.80
2018-07-05T06:34:37.553Z,22.80
2018-07-05T06:35:09.308Z,22.80
2018-07-05T06:35:41.039Z,22.80
2018-07-05T06:36:12.778Z,22.80
2018-07-05T06:36:44.489Z,22.80
2018-07-05T06:37:16.228Z,22.80
2018-07-05T06:37:47.960Z,22.80
2018-07-05T06:38:19.692Z,22.80
2018-07-05T06:38:51.406Z,22.80
2018-07-05T06:39:23.128Z,22.80
2018-07-05T06:39:54.861Z,22.80
2018-07-05T06:40:26.594Z,22.80
2018-07-05T06:40:58.335Z,22.80
2018-07-05T06:41:30.075Z,22.80
2018-07-05T06:42:01.799Z,22.80
2018-07-05T06:42:33.541Z,22.80
2018-07-05T06:43:05.257Z,22.80
2018-07-05T06:43:36.994Z,22.80
2018-07-05T06:44:08.718Z,22.90
2018-07-05T06:44:40.441Z,22.80
2018-07-05T06:45:12.172Z,22.80
2018-07-05T06:45:43.905Z,22.80
2018-07-05T06:46:15.632Z,22.80
2018-07-05T06:46:47.353Z,22.80
2018-07-05T06:47:19.094Z,22.80
2018-07-05T06:47:50.803Z,22.80
2018-07-05T06:48:22.536Z,22.80
2018-07-05T06:48:54.275Z,22.80
2018-07-05T06:49:26.141Z,22.80
2018-07-05T06:49:58.024Z,22.80
2018-07-05T06:50:29.766Z,22.80
2018-07-05T06:51:01.497Z,22.80
2018-07-05T06:51:33.396Z,22.80
2018-07-05T06:52:05.126Z,22.80
2018-07-05T06:52:36.867Z,22.80
2018-07-05T06:53:08.646Z,22.80
2018-07-05T06:53:40.547Z,22.80